sensor_id;sensor_type;location;lat;lon;timestamp;P1;durP1;ratioP1;P2;durP2;ratioP2
11761;SDS011;5938;47.098;15.474;2023-05-10T00:03:29;6.50;;;5.90;;
11761;SDS011;5938;47.098;15.474;2023-05-10T00:07:35;7.00;;;6.27;;
11761;SDS011;5938;47.098;15.474;2023-05-10T00:11:38;5.77;;;5.17;;
11761;SDS011;5938;47.098;15.474;2023-05-10T00:15:41;9.73;;;7.77;;
11761;SDS011;5938;47.098;15.474;2023-05-10T00:19:44;6.93;;;6.33;;
11761;SDS011;5938;47.098;15.474;2023-05-10T00:23:49;8.03;;;6.70;;
11761;SDS011;5938;47.098;15.474;2023-05-10T00:27:52;7.10;;;6.00;;
11761;SDS011;5938;47.098;15.474;2023-05-10T00:31:56;9.43;;;6.67;;
11761;SDS011;5938;47.098;15.474;2023-05-10T00:35:59;7.53;;;6.17;;
11761;SDS011;5938;47.098;15.474;2023-05-10T00:40:05;6.80;;;6.20;;
11761;SDS011;5938;47.098;15.474;2023-05-10T00:44:09;6.37;;;5.67;;
11761;SDS011;5938;47.098;15.474;2023-05-10T00:48:12;7.90;;;6.63;;
11761;SDS011;5938;47.098;15.474;2023-05-10T00:52:15;7.10;;;6.13;;
11761;SDS011;5938;47.098;15.474;2023-05-10T00:56:20;7.90;;;7.20;;
11761;SDS011;5938;47.098;15.474;2023-05-10T01:00:24;9.30;;;6.83;;
11761;SDS011;5938;47.098;15.474;2023-05-10T01:04:27;8.97;;;6.80;;
11761;SDS011;5938;47.098;15.474;2023-05-10T01:08:31;8.43;;;5.20;;
11761;SDS011;5938;47.098;15.474;2023-05-10T01:12:37;7.20;;;5.27;;
11761;SDS011;5938;47.098;15.474;2023-05-10T01:16:43;8.03;;;5.90;;
11761;SDS011;5938;47.098;15.474;2023-05-10T01:20:48;6.00;;;5.40;;
11761;SDS011;5938;47.098;15.474;2023-05-10T01:34:27;6.00;;;5.43;;
11761;SDS011;5938;47.098;15.474;2023-05-10T01:38:38;7.83;;;5.80;;
11761;SDS011;5938;47.098;15.474;2023-05-10T01:42:46;6.47;;;5.87;;
11761;SDS011;5938;47.098;15.474;2023-05-10T01:46:55;7.67;;;5.47;;
11761;SDS011;5938;47.098;15.474;2023-05-10T01:51:09;9.20;;;6.83;;
11761;SDS011;5938;47.098;15.474;2023-05-10T01:55:16;8.40;;;6.07;;
11761;SDS011;5938;47.098;15.474;2023-05-10T01:59:24;7.20;;;6.50;;
11761;SDS011;5938;47.098;15.474;2023-05-10T02:03:34;6.60;;;5.80;;
11761;SDS011;5938;47.098;15.474;2023-05-10T02:07:44;8.70;;;6.40;;
11761;SDS011;5938;47.098;15.474;2023-05-10T02:11:50;8.10;;;7.27;;
11761;SDS011;5938;47.098;15.474;2023-05-10T02:15:54;9.13;;;6.20;;
11761;SDS011;5938;47.098;15.474;2023-05-10T02:19:59;7.30;;;6.53;;
11761;SDS011;5938;47.098;15.474;2023-05-10T02:24:07;6.90;;;6.20;;
11761;SDS011;5938;47.098;15.474;2023-05-10T02:28:13;9.20;;;7.17;;
11761;SDS011;5938;47.098;15.474;2023-05-10T02:32:19;10.33;;;6.77;;
11761;SDS011;5938;47.098;15.474;2023-05-10T02:36:24;7.97;;;6.50;;
11761;SDS011;5938;47.098;15.474;2023-05-10T02:40:31;7.07;;;6.27;;
11761;SDS011;5938;47.098;15.474;2023-05-10T02:44:36;8.60;;;6.10;;
11761;SDS011;5938;47.098;15.474;2023-05-10T02:48:41;7.70;;;6.40;;
11761;SDS011;5938;47.098;15.474;2023-05-10T02:52:44;12.20;;;6.50;;
11761;SDS011;5938;47.098;15.474;2023-05-10T02:56:57;10.80;;;7.27;;
11761;SDS011;5938;47.098;15.474;2023-05-10T03:01:01;7.30;;;6.50;;
11761;SDS011;5938;47.098;15.474;2023-05-10T03:05:06;7.43;;;6.63;;
11761;SDS011;5938;47.098;15.474;2023-05-10T03:09:10;7.27;;;6.57;;
11761;SDS011;5938;47.098;15.474;2023-05-10T03:13:20;8.20;;;6.50;;
11761;SDS011;5938;47.098;15.474;2023-05-10T03:17:33;7.97;;;7.17;;
11761;SDS011;5938;47.098;15.474;2023-05-10T03:21:44;7.47;;;6.13;;
11761;SDS011;5938;47.098;15.474;2023-05-10T03:25:53;9.43;;;6.57;;
11761;SDS011;5938;47.098;15.474;2023-05-10T03:29:58;9.30;;;7.40;;
11761;SDS011;5938;47.098;15.474;2023-05-10T03:34:02;9.23;;;6.77;;
11761;SDS011;5938;47.098;15.474;2023-05-10T03:38:05;7.73;;;6.80;;
11761;SDS011;5938;47.098;15.474;2023-05-10T03:42:08;8.03;;;6.40;;
11761;SDS011;5938;47.098;15.474;2023-05-10T03:46:14;8.07;;;6.63;;
11761;SDS011;5938;47.098;15.474;2023-05-10T03:50:17;9.00;;;7.00;;
11761;SDS011;5938;47.098;15.474;2023-05-10T03:54:21;16.80;;;7.57;;
11761;SDS011;5938;47.098;15.474;2023-05-10T03:58:24;7.47;;;6.77;;
11761;SDS011;5938;47.098;15.474;2023-05-10T04:02:28;9.97;;;8.50;;
11761;SDS011;5938;47.098;15.474;2023-05-10T04:06:32;9.90;;;7.77;;
11761;SDS011;5938;47.098;15.474;2023-05-10T04:10:36;7.87;;;6.43;;
11761;SDS011;5938;47.098;15.474;2023-05-10T04:14:39;9.53;;;6.83;;
11761;SDS011;5938;47.098;15.474;2023-05-10T04:18:44;8.20;;;7.33;;
11761;SDS011;5938;47.098;15.474;2023-05-10T04:22:47;9.73;;;7.80;;
11761;SDS011;5938;47.098;15.474;2023-05-10T04:26:50;8.53;;;7.43;;
11761;SDS011;5938;47.098;15.474;2023-05-10T04:31:00;9.47;;;7.37;;
11761;SDS011;5938;47.098;15.474;2023-05-10T04:35:06;7.50;;;6.63;;
11761;SDS011;5938;47.098;15.474;2023-05-10T04:39:11;7.53;;;6.67;;
11761;SDS011;5938;47.098;15.474;2023-05-10T04:43:15;8.40;;;7.53;;
11761;SDS011;5938;47.098;15.474;2023-05-10T04:47:19;9.20;;;7.80;;
11761;SDS011;5938;47.098;15.474;2023-05-10T04:51:24;9.27;;;7.40;;
11761;SDS011;5938;47.098;15.474;2023-05-10T04:55:29;12.20;;;8.23;;
11761;SDS011;5938;47.098;15.474;2023-05-10T04:59:32;13.70;;;7.90;;
11761;SDS011;5938;47.098;15.474;2023-05-10T05:03:38;10.40;;;8.20;;
11761;SDS011;5938;47.098;15.474;2023-05-10T05:07:43;10.37;;;7.07;;
11761;SDS011;5938;47.098;15.474;2023-05-10T05:11:51;10.20;;;7.50;;
11761;SDS011;5938;47.098;15.474;2023-05-10T05:15:56;8.83;;;7.90;;
11761;SDS011;5938;47.098;15.474;2023-05-10T05:20:00;14.13;;;8.13;;
11761;SDS011;5938;47.098;15.474;2023-05-10T05:24:05;12.27;;;8.00;;
11761;SDS011;5938;47.098;15.474;2023-05-10T05:28:09;9.53;;;7.27;;
11761;SDS011;5938;47.098;15.474;2023-05-10T05:32:12;9.77;;;8.77;;
11761;SDS011;5938;47.098;15.474;2023-05-10T05:36:15;14.40;;;8.60;;
11761;SDS011;5938;47.098;15.474;2023-05-10T05:40:20;13.33;;;8.70;;
11761;SDS011;5938;47.098;15.474;2023-05-10T05:44:24;9.57;;;8.03;;
11761;SDS011;5938;47.098;15.474;2023-05-10T05:48:29;10.30;;;8.37;;
11761;SDS011;5938;47.098;15.474;2023-05-10T05:52:32;11.00;;;9.80;;
11761;SDS011;5938;47.098;15.474;2023-05-10T05:56:38;10.37;;;9.10;;
11761;SDS011;5938;47.098;15.474;2023-05-10T06:00:41;11.17;;;9.70;;
11761;SDS011;5938;47.098;15.474;2023-05-10T06:04:45;13.33;;;10.37;;
11761;SDS011;5938;47.098;15.474;2023-05-10T06:08:48;11.43;;;10.23;;
11761;SDS011;5938;47.098;15.474;2023-05-10T06:12:52;9.97;;;8.97;;
11761;SDS011;5938;47.098;15.474;2023-05-10T06:16:56;9.03;;;8.23;;
11761;SDS011;5938;47.098;15.474;2023-05-10T06:21:01;11.17;;;8.97;;
11761;SDS011;5938;47.098;15.474;2023-05-10T06:25:04;9.10;;;8.20;;
11761;SDS011;5938;47.098;15.474;2023-05-10T06:29:10;7.93;;;7.13;;
11761;SDS011;5938;47.098;15.474;2023-05-10T06:33:13;8.20;;;6.63;;
11761;SDS011;5938;47.098;15.474;2023-05-10T06:37:17;11.47;;;7.30;;
11761;SDS011;5938;47.098;15.474;2023-05-10T06:41:20;8.40;;;6.33;;
11761;SDS011;5938;47.098;15.474;2023-05-10T06:45:26;6.40;;;5.90;;
11761;SDS011;5938;47.098;15.474;2023-05-10T06:49:29;10.57;;;9.00;;
11761;SDS011;5938;47.098;15.474;2023-05-10T06:53:33;6.50;;;5.83;;
11761;SDS011;5938;47.098;15.474;2023-05-10T06:57:36;8.27;;;6.87;;
11761;SDS011;5938;47.098;15.474;2023-05-10T07:01:41;9.93;;;8.53;;
11761;SDS011;5938;47.098;15.474;2023-05-10T07:05:44;6.43;;;5.73;;
11761;SDS011;5938;47.098;15.474;2023-05-10T07:09:48;12.43;;;11.43;;
11761;SDS011;5938;47.098;15.474;2023-05-10T07:13:53;7.97;;;7.27;;
11761;SDS011;5938;47.098;15.474;2023-05-10T07:17:58;6.90;;;5.33;;
11761;SDS011;5938;47.098;15.474;2023-05-10T07:22:02;6.10;;;5.50;;
11761;SDS011;5938;47.098;15.474;2023-05-10T07:26:05;6.47;;;5.87;;
11761;SDS011;5938;47.098;15.474;2023-05-10T07:30:09;7.70;;;5.97;;
11761;SDS011;5938;47.098;15.474;2023-05-10T07:34:14;7.43;;;6.40;;
11761;SDS011;5938;47.098;15.474;2023-05-10T07:38:17;7.53;;;5.30;;
11761;SDS011;5938;47.098;15.474;2023-05-10T07:42:20;6.73;;;6.03;;
11761;SDS011;5938;47.098;15.474;2023-05-10T07:46:24;6.07;;;4.80;;
11761;SDS011;5938;47.098;15.474;2023-05-10T07:50:28;5.83;;;5.33;;
11761;SDS011;5938;47.098;15.474;2023-05-10T07:54:32;6.47;;;5.80;;
11761;SDS011;5938;47.098;15.474;2023-05-10T07:58:35;5.37;;;4.87;;
11761;SDS011;5938;47.098;15.474;2023-05-10T08:02:38;8.17;;;6.10;;
11761;SDS011;5938;47.098;15.474;2023-05-10T08:06:44;8.10;;;4.80;;
11761;SDS011;5938;47.098;15.474;2023-05-10T08:10:47;6.30;;;5.70;;
11761;SDS011;5938;47.098;15.474;2023-05-10T08:14:50;6.80;;;6.03;;
11761;SDS011;5938;47.098;15.474;2023-05-10T08:18:53;6.57;;;5.87;;
11761;SDS011;5938;47.098;15.474;2023-05-10T08:22:59;5.93;;;5.30;;
11761;SDS011;5938;47.098;15.474;2023-05-10T08:27:02;5.63;;;5.10;;
11761;SDS011;5938;47.098;15.474;2023-05-10T08:31:06;6.47;;;5.23;;
11761;SDS011;5938;47.098;15.474;2023-05-10T08:35:09;6.23;;;5.67;;
11761;SDS011;5938;47.098;15.474;2023-05-10T08:39:18;5.70;;;5.10;;
11761;SDS011;5938;47.098;15.474;2023-05-10T08:43:30;5.97;;;5.37;;
11761;SDS011;5938;47.098;15.474;2023-05-10T08:47:34;8.00;;;5.60;;
11761;SDS011;5938;47.098;15.474;2023-05-10T08:51:40;5.47;;;4.97;;
11761;SDS011;5938;47.098;15.474;2023-05-10T08:55:51;5.60;;;4.73;;
11761;SDS011;5938;47.098;15.474;2023-05-10T08:59:55;4.37;;;3.97;;
11761;SDS011;5938;47.098;15.474;2023-05-10T09:03:59;5.23;;;4.70;;
11761;SDS011;5938;47.098;15.474;2023-05-10T09:08:03;4.83;;;4.37;;
11761;SDS011;5938;47.098;15.474;2023-05-10T09:12:09;6.50;;;4.30;;
11761;SDS011;5938;47.098;15.474;2023-05-10T09:16:13;4.80;;;4.30;;
11761;SDS011;5938;47.098;15.474;2023-05-10T09:20:22;7.30;;;5.10;;
11761;SDS011;5938;47.098;15.474;2023-05-10T09:24:26;6.10;;;5.13;;
11761;SDS011;5938;47.098;15.474;2023-05-10T09:28:32;6.57;;;5.40;;
11761;SDS011;5938;47.098;15.474;2023-05-10T09:32:36;6.67;;;4.87;;
11761;SDS011;5938;47.098;15.474;2023-05-10T09:36:49;5.20;;;4.80;;
11761;SDS011;5938;47.098;15.474;2023-05-10T09:40:53;4.80;;;4.30;;
11761;SDS011;5938;47.098;15.474;2023-05-10T09:45:01;6.13;;;5.53;;
11761;SDS011;5938;47.098;15.474;2023-05-10T09:49:08;5.30;;;4.80;;
11761;SDS011;5938;47.098;15.474;2023-05-10T09:53:16;6.47;;;4.80;;
11761;SDS011;5938;47.098;15.474;2023-05-10T09:57:20;5.17;;;4.67;;
11761;SDS011;5938;47.098;15.474;2023-05-10T10:01:26;5.70;;;5.13;;
11761;SDS011;5938;47.098;15.474;2023-05-10T10:05:31;4.67;;;4.13;;
11761;SDS011;5938;47.098;15.474;2023-05-10T10:09:35;4.37;;;3.60;;
11761;SDS011;5938;47.098;15.474;2023-05-10T10:13:38;4.57;;;3.87;;
11761;SDS011;5938;47.098;15.474;2023-05-10T10:17:43;4.23;;;3.90;;
11761;SDS011;5938;47.098;15.474;2023-05-10T10:21:47;3.77;;;3.50;;
11761;SDS011;5938;47.098;15.474;2023-05-10T10:25:50;5.43;;;3.93;;
11761;SDS011;5938;47.098;15.474;2023-05-10T10:29:59;3.47;;;3.17;;
11761;SDS011;5938;47.098;15.474;2023-05-10T10:34:09;5.07;;;4.43;;
11761;SDS011;5938;47.098;15.474;2023-05-10T10:38:15;4.67;;;4.27;;
11761;SDS011;5938;47.098;15.474;2023-05-10T10:47:07;4.40;;;4.00;;
11761;SDS011;5938;47.098;15.474;2023-05-10T10:51:37;3.90;;;3.50;;
11761;SDS011;5938;47.098;15.474;2023-05-10T10:55:45;4.20;;;3.90;;
11761;SDS011;5938;47.098;15.474;2023-05-10T10:59:50;4.57;;;4.13;;
11761;SDS011;5938;47.098;15.474;2023-05-10T11:08:27;4.60;;;4.23;;
11761;SDS011;5938;47.098;15.474;2023-05-10T11:12:33;5.67;;;5.17;;
11761;SDS011;5938;47.098;15.474;2023-05-10T11:16:40;6.20;;;4.60;;
11761;SDS011;5938;47.098;15.474;2023-05-10T11:20:49;6.37;;;4.20;;
11761;SDS011;5938;47.098;15.474;2023-05-10T11:24:57;6.07;;;5.47;;
11761;SDS011;5938;47.098;15.474;2023-05-10T11:29:01;6.80;;;5.57;;
11761;SDS011;5938;47.098;15.474;2023-05-10T11:33:06;6.80;;;6.20;;
11761;SDS011;5938;47.098;15.474;2023-05-10T11:37:10;6.33;;;5.83;;
11761;SDS011;5938;47.098;15.474;2023-05-10T11:41:15;6.63;;;6.03;;
11761;SDS011;5938;47.098;15.474;2023-05-10T11:45:20;6.83;;;6.23;;
11761;SDS011;5938;47.098;15.474;2023-05-10T11:49:27;5.37;;;4.97;;
11761;SDS011;5938;47.098;15.474;2023-05-10T11:53:32;7.40;;;6.60;;
11761;SDS011;5938;47.098;15.474;2023-05-10T11:57:37;6.63;;;6.00;;
11761;SDS011;5938;47.098;15.474;2023-05-10T12:01:42;6.83;;;6.23;;
11761;SDS011;5938;47.098;15.474;2023-05-10T12:05:45;7.77;;;6.93;;
11761;SDS011;5938;47.098;15.474;2023-05-10T12:10:03;7.13;;;5.50;;
11761;SDS011;5938;47.098;15.474;2023-05-10T12:14:17;7.70;;;6.17;;
11761;SDS011;5938;47.098;15.474;2023-05-10T12:18:23;7.03;;;6.43;;
11761;SDS011;5938;47.098;15.474;2023-05-10T12:22:34;7.83;;;6.90;;
11761;SDS011;5938;47.098;15.474;2023-05-10T12:26:37;6.23;;;5.63;;
11761;SDS011;5938;47.098;15.474;2023-05-10T12:30:42;6.90;;;6.40;;
11761;SDS011;5938;47.098;15.474;2023-05-10T12:34:46;6.17;;;5.67;;
11761;SDS011;5938;47.098;15.474;2023-05-10T12:38:50;6.27;;;5.73;;
11761;SDS011;5938;47.098;15.474;2023-05-10T12:42:53;6.37;;;5.73;;
11761;SDS011;5938;47.098;15.474;2023-05-10T12:46:58;6.97;;;6.37;;
11761;SDS011;5938;47.098;15.474;2023-05-10T12:51:02;7.93;;;6.83;;
11761;SDS011;5938;47.098;15.474;2023-05-10T12:55:08;6.67;;;6.03;;
11761;SDS011;5938;47.098;15.474;2023-05-10T12:59:11;6.17;;;5.60;;
11761;SDS011;5938;47.098;15.474;2023-05-10T13:03:16;6.77;;;6.23;;
11761;SDS011;5938;47.098;15.474;2023-05-10T13:07:19;6.57;;;5.97;;
11761;SDS011;5938;47.098;15.474;2023-05-10T13:11:22;8.83;;;7.13;;
11761;SDS011;5938;47.098;15.474;2023-05-10T13:15:26;7.17;;;6.47;;
11761;SDS011;5938;47.098;15.474;2023-05-10T13:19:31;7.90;;;5.83;;
11761;SDS011;5938;47.098;15.474;2023-05-10T13:23:34;6.77;;;6.17;;
11761;SDS011;5938;47.098;15.474;2023-05-10T13:27:37;5.70;;;5.10;;
11761;SDS011;5938;47.098;15.474;2023-05-10T13:31:41;5.50;;;5.10;;
11761;SDS011;5938;47.098;15.474;2023-05-10T13:35:46;5.00;;;4.10;;
11761;SDS011;5938;47.098;15.474;2023-05-10T13:39:49;6.87;;;6.27;;
11761;SDS011;5938;47.098;15.474;2023-05-10T13:43:53;5.90;;;5.50;;
11761;SDS011;5938;47.098;15.474;2023-05-10T13:47:56;6.97;;;6.27;;
11761;SDS011;5938;47.098;15.474;2023-05-10T13:52:03;7.27;;;6.70;;
11761;SDS011;5938;47.098;15.474;2023-05-10T13:56:08;6.57;;;6.00;;
11761;SDS011;5938;47.098;15.474;2023-05-10T14:00:18;7.27;;;6.57;;
11761;SDS011;5938;47.098;15.474;2023-05-10T14:04:22;6.47;;;5.97;;
11761;SDS011;5938;47.098;15.474;2023-05-10T14:08:32;5.73;;;5.23;;
11761;SDS011;5938;47.098;15.474;2023-05-10T14:12:35;6.70;;;6.10;;
11761;SDS011;5938;47.098;15.474;2023-05-10T14:16:41;7.17;;;6.47;;
11761;SDS011;5938;47.098;15.474;2023-05-10T14:20:45;7.50;;;6.90;;
11761;SDS011;5938;47.098;15.474;2023-05-10T14:24:50;5.70;;;5.20;;
11761;SDS011;5938;47.098;15.474;2023-05-10T14:28:55;6.90;;;6.27;;
11761;SDS011;5938;47.098;15.474;2023-05-10T14:32:58;7.30;;;6.63;;
11761;SDS011;5938;47.098;15.474;2023-05-10T14:37:02;6.07;;;5.67;;
11761;SDS011;5938;47.098;15.474;2023-05-10T14:41:07;6.07;;;5.57;;
11761;SDS011;5938;47.098;15.474;2023-05-10T14:45:12;5.70;;;5.20;;
11761;SDS011;5938;47.098;15.474;2023-05-10T14:49:16;5.83;;;5.33;;
11761;SDS011;5938;47.098;15.474;2023-05-10T14:53:19;5.83;;;5.40;;
11761;SDS011;5938;47.098;15.474;2023-05-10T14:57:25;5.90;;;5.10;;
11761;SDS011;5938;47.098;15.474;2023-05-10T15:01:30;4.80;;;4.40;;
11761;SDS011;5938;47.098;15.474;2023-05-10T15:05:36;5.97;;;5.37;;
11761;SDS011;5938;47.098;15.474;2023-05-10T15:09:39;6.43;;;4.97;;
11761;SDS011;5938;47.098;15.474;2023-05-10T15:13:44;5.30;;;4.80;;
11761;SDS011;5938;47.098;15.474;2023-05-10T15:17:47;5.30;;;5.00;;
11761;SDS011;5938;47.098;15.474;2023-05-10T15:21:50;5.80;;;5.40;;
11761;SDS011;5938;47.098;15.474;2023-05-10T15:25:54;6.40;;;5.80;;
11761;SDS011;5938;47.098;15.474;2023-05-10T15:29:58;5.83;;;5.33;;
11761;SDS011;5938;47.098;15.474;2023-05-10T15:34:02;5.53;;;5.13;;
11761;SDS011;5938;47.098;15.474;2023-05-10T15:38:05;12.23;;;7.73;;
11761;SDS011;5938;47.098;15.474;2023-05-10T15:42:08;5.77;;;5.27;;
11761;SDS011;5938;47.098;15.474;2023-05-10T15:46:13;5.90;;;5.40;;
11761;SDS011;5938;47.098;15.474;2023-05-10T15:50:16;5.40;;;5.00;;
11761;SDS011;5938;47.098;15.474;2023-05-10T15:54:20;6.60;;;5.90;;
11761;SDS011;5938;47.098;15.474;2023-05-10T15:58:23;6.50;;;6.00;;
11761;SDS011;5938;47.098;15.474;2023-05-10T16:02:28;6.50;;;5.90;;
11761;SDS011;5938;47.098;15.474;2023-05-10T16:06:31;5.83;;;5.33;;
11761;SDS011;5938;47.098;15.474;2023-05-10T16:10:36;6.37;;;5.63;;
11761;SDS011;5938;47.098;15.474;2023-05-10T16:14:40;6.10;;;5.03;;
11761;SDS011;5938;47.098;15.474;2023-05-10T16:18:45;6.10;;;5.60;;
11761;SDS011;5938;47.098;15.474;2023-05-10T16:22:49;6.27;;;5.77;;
11761;SDS011;5938;47.098;15.474;2023-05-10T16:26:53;5.20;;;4.80;;
11761;SDS011;5938;47.098;15.474;2023-05-10T16:30:57;6.40;;;5.90;;
11761;SDS011;5938;47.098;15.474;2023-05-10T16:35:05;5.23;;;4.93;;
11761;SDS011;5938;47.098;15.474;2023-05-10T16:39:10;5.40;;;5.00;;
11761;SDS011;5938;47.098;15.474;2023-05-10T16:43:14;6.37;;;5.87;;
11761;SDS011;5938;47.098;15.474;2023-05-10T16:47:18;6.27;;;5.73;;
11761;SDS011;5938;47.098;15.474;2023-05-10T16:51:23;9.77;;;6.10;;
11761;SDS011;5938;47.098;15.474;2023-05-10T16:55:27;5.87;;;5.47;;
11761;SDS011;5938;47.098;15.474;2023-05-10T16:59:31;6.13;;;5.53;;
11761;SDS011;5938;47.098;15.474;2023-05-10T17:03:35;5.53;;;5.13;;
11761;SDS011;5938;47.098;15.474;2023-05-10T17:07:40;6.27;;;5.77;;
11761;SDS011;5938;47.098;15.474;2023-05-10T17:11:44;7.17;;;5.70;;
11761;SDS011;5938;47.098;15.474;2023-05-10T17:15:48;7.57;;;6.60;;
11761;SDS011;5938;47.098;15.474;2023-05-10T17:19:52;5.73;;;5.23;;
11761;SDS011;5938;47.098;15.474;2023-05-10T17:23:58;6.17;;;5.23;;
11761;SDS011;5938;47.098;15.474;2023-05-10T17:28:02;6.20;;;5.40;;
11761;SDS011;5938;47.098;15.474;2023-05-10T17:32:06;5.67;;;5.17;;
11761;SDS011;5938;47.098;15.474;2023-05-10T17:36:11;5.80;;;5.40;;
11761;SDS011;5938;47.098;15.474;2023-05-10T17:40:17;6.10;;;5.53;;
11761;SDS011;5938;47.098;15.474;2023-05-10T17:44:21;4.97;;;4.57;;
11761;SDS011;5938;47.098;15.474;2023-05-10T17:48:29;5.17;;;4.73;;
11761;SDS011;5938;47.098;15.474;2023-05-10T17:52:34;5.17;;;4.77;;
11761;SDS011;5938;47.098;15.474;2023-05-10T17:56:39;5.20;;;4.80;;
11761;SDS011;5938;47.098;15.474;2023-05-10T18:00:43;6.33;;;5.83;;
11761;SDS011;5938;47.098;15.474;2023-05-10T18:04:48;8.50;;;5.13;;
11761;SDS011;5938;47.098;15.474;2023-05-10T18:08:52;6.17;;;5.77;;
11761;SDS011;5938;47.098;15.474;2023-05-10T18:12:57;6.93;;;6.43;;
11761;SDS011;5938;47.098;15.474;2023-05-10T18:17:09;6.53;;;5.93;;
11761;SDS011;5938;47.098;15.474;2023-05-10T18:21:13;6.23;;;5.53;;
11761;SDS011;5938;47.098;15.474;2023-05-10T18:25:17;6.63;;;5.40;;
11761;SDS011;5938;47.098;15.474;2023-05-10T18:29:25;6.27;;;5.67;;
11761;SDS011;5938;47.098;15.474;2023-05-10T18:33:29;6.27;;;5.67;;
11761;SDS011;5938;47.098;15.474;2023-05-10T18:37:35;6.20;;;5.70;;
11761;SDS011;5938;47.098;15.474;2023-05-10T18:41:41;6.37;;;5.77;;
11761;SDS011;5938;47.098;15.474;2023-05-10T18:45:47;6.57;;;5.97;;
11761;SDS011;5938;47.098;15.474;2023-05-10T18:49:52;6.87;;;5.60;;
11761;SDS011;5938;47.098;15.474;2023-05-10T18:53:57;6.53;;;5.93;;
11761;SDS011;5938;47.098;15.474;2023-05-10T18:58:01;6.60;;;5.87;;
11761;SDS011;5938;47.098;15.474;2023-05-10T19:02:07;7.60;;;6.80;;
11761;SDS011;5938;47.098;15.474;2023-05-10T19:06:12;7.27;;;5.67;;
11761;SDS011;5938;47.098;15.474;2023-05-10T19:10:17;6.07;;;5.57;;
11761;SDS011;5938;47.098;15.474;2023-05-10T19:14:22;5.63;;;5.13;;
11761;SDS011;5938;47.098;15.474;2023-05-10T19:18:29;8.03;;;6.20;;
11761;SDS011;5938;47.098;15.474;2023-05-10T19:22:39;6.87;;;6.27;;
11761;SDS011;5938;47.098;15.474;2023-05-10T19:27:04;7.47;;;6.77;;
11761;SDS011;5938;47.098;15.474;2023-05-10T19:31:10;7.00;;;6.40;;
11761;SDS011;5938;47.098;15.474;2023-05-10T19:35:17;12.47;;;9.67;;
11761;SDS011;5938;47.098;15.474;2023-05-10T19:39:21;20.20;;;13.53;;
11761;SDS011;5938;47.098;15.474;2023-05-10T19:43:28;26.43;;;15.60;;
11761;SDS011;5938;47.098;15.474;2023-05-10T19:47:34;35.13;;;20.10;;
11761;SDS011;5938;47.098;15.474;2023-05-10T19:51:40;20.23;;;13.80;;
11761;SDS011;5938;47.098;15.474;2023-05-10T19:55:45;26.10;;;16.57;;
11761;SDS011;5938;47.098;15.474;2023-05-10T19:59:49;15.37;;;11.87;;
11761;SDS011;5938;47.098;15.474;2023-05-10T20:03:54;8.27;;;7.47;;
11761;SDS011;5938;47.098;15.474;2023-05-10T20:08:00;9.03;;;7.40;;
11761;SDS011;5938;47.098;15.474;2023-05-10T20:12:04;7.10;;;6.50;;
11761;SDS011;5938;47.098;15.474;2023-05-10T20:16:08;7.60;;;7.00;;
11761;SDS011;5938;47.098;15.474;2023-05-10T20:20:13;8.10;;;6.50;;
11761;SDS011;5938;47.098;15.474;2023-05-10T20:24:19;6.77;;;6.23;;
11761;SDS011;5938;47.098;15.474;2023-05-10T20:28:27;6.43;;;5.93;;
11761;SDS011;5938;47.098;15.474;2023-05-10T20:32:32;7.27;;;6.53;;
11761;SDS011;5938;47.098;15.474;2023-05-10T20:36:37;8.37;;;7.57;;
11761;SDS011;5938;47.098;15.474;2023-05-10T20:40:44;7.20;;;6.60;;
11761;SDS011;5938;47.098;15.474;2023-05-10T20:44:49;7.57;;;6.87;;
11761;SDS011;5938;47.098;15.474;2023-05-10T20:48:54;6.83;;;6.30;;
11761;SDS011;5938;47.098;15.474;2023-05-10T20:52:59;6.93;;;6.30;;
11761;SDS011;5938;47.098;15.474;2023-05-10T20:57:05;9.03;;;8.23;;
11761;SDS011;5938;47.098;15.474;2023-05-10T21:01:09;7.00;;;6.30;;
11761;SDS011;5938;47.098;15.474;2023-05-10T21:05:12;7.90;;;6.03;;
11761;SDS011;5938;47.098;15.474;2023-05-10T21:09:16;7.10;;;6.50;;
11761;SDS011;5938;47.098;15.474;2023-05-10T21:13:20;8.30;;;7.50;;
11761;SDS011;5938;47.098;15.474;2023-05-10T21:17:24;6.90;;;6.30;;
11761;SDS011;5938;47.098;15.474;2023-05-10T21:21:27;7.40;;;6.80;;
11761;SDS011;5938;47.098;15.474;2023-05-10T21:25:30;7.67;;;7.07;;
11761;SDS011;5938;47.098;15.474;2023-05-10T21:29:35;8.70;;;7.80;;
11761;SDS011;5938;47.098;15.474;2023-05-10T21:33:38;7.20;;;6.70;;
11761;SDS011;5938;47.098;15.474;2023-05-10T21:37:42;8.43;;;7.63;;
11761;SDS011;5938;47.098;15.474;2023-05-10T21:41:45;8.27;;;7.30;;
11761;SDS011;5938;47.098;15.474;2023-05-10T21:45:50;8.93;;;8.13;;
11761;SDS011;5938;47.098;15.474;2023-05-10T21:49:53;9.03;;;8.23;;
11761;SDS011;5938;47.098;15.474;2023-05-10T21:53:56;9.87;;;8.97;;
11761;SDS011;5938;47.098;15.474;2023-05-10T21:57:59;9.97;;;9.13;;
11761;SDS011;5938;47.098;15.474;2023-05-10T22:02:04;10.93;;;10.00;;
11761;SDS011;5938;47.098;15.474;2023-05-10T22:06:07;9.40;;;8.60;;
11761;SDS011;5938;47.098;15.474;2023-05-10T22:10:11;8.40;;;7.80;;
11761;SDS011;5938;47.098;15.474;2023-05-10T22:14:14;9.73;;;8.80;;
11761;SDS011;5938;47.098;15.474;2023-05-10T22:18:19;8.60;;;7.97;;
11761;SDS011;5938;47.098;15.474;2023-05-10T22:22:24;8.50;;;7.80;;
11761;SDS011;5938;47.098;15.474;2023-05-10T22:26:27;9.17;;;8.27;;
11761;SDS011;5938;47.098;15.474;2023-05-10T22:30:30;9.03;;;8.27;;
11761;SDS011;5938;47.098;15.474;2023-05-10T22:34:35;9.67;;;8.87;;
11761;SDS011;5938;47.098;15.474;2023-05-10T22:38:38;9.27;;;8.37;;
11761;SDS011;5938;47.098;15.474;2023-05-10T22:42:41;8.87;;;7.83;;
11761;SDS011;5938;47.098;15.474;2023-05-10T22:46:44;9.50;;;8.30;;
11761;SDS011;5938;47.098;15.474;2023-05-10T22:50:49;11.13;;;8.90;;
11761;SDS011;5938;47.098;15.474;2023-05-10T22:54:53;10.63;;;9.73;;
11761;SDS011;5938;47.098;15.474;2023-05-10T22:58:56;10.17;;;9.27;;
11761;SDS011;5938;47.098;15.474;2023-05-10T23:02:59;10.40;;;9.47;;
11761;SDS011;5938;47.098;15.474;2023-05-10T23:07:04;11.97;;;10.33;;
11761;SDS011;5938;47.098;15.474;2023-05-10T23:11:07;13.43;;;10.60;;
11761;SDS011;5938;47.098;15.474;2023-05-10T23:15:10;10.70;;;9.70;;
11761;SDS011;5938;47.098;15.474;2023-05-10T23:19:14;10.97;;;10.00;;
11761;SDS011;5938;47.098;15.474;2023-05-10T23:23:18;11.37;;;10.47;;
11761;SDS011;5938;47.098;15.474;2023-05-10T23:27:23;13.37;;;12.13;;
11761;SDS011;5938;47.098;15.474;2023-05-10T23:31:30;13.60;;;11.13;;
11761;SDS011;5938;47.098;15.474;2023-05-10T23:35:33;13.13;;;11.93;;
11761;SDS011;5938;47.098;15.474;2023-05-10T23:39:38;11.00;;;10.20;;
11761;SDS011;5938;47.098;15.474;2023-05-10T23:43:41;12.37;;;11.20;;
11761;SDS011;5938;47.098;15.474;2023-05-10T23:47:44;11.30;;;10.30;;
11761;SDS011;5938;47.098;15.474;2023-05-10T23:51:48;13.33;;;10.60;;
11761;SDS011;5938;47.098;15.474;2023-05-10T23:55:52;12.43;;;11.20;;
11761;SDS011;5938;47.098;15.474;2023-05-10T23:59:55;12.50;;;11.40;;
